Time;durP1;ratioP1;P1;durP2;ratioP2;P2;SDS_P1;SDS_P2;PMS_P1;PMS_P2;Temp;Humidity;BMP_temperature;BMP_pressure;BME280_temperature;BME280_humidity;BME280_pressure;Samples;Min_cycle;Max_cycle;Signal;HPM_P1;HPM_P2
2021/07/04 00:01:12;;;;;;;53.13;27.10;;;;;;;16.02;100.00;101099.75;5074819;28;20129;-61
2021/07/04 00:03:38;;;;;;;58.20;27.40;;;;;;;15.98;100.00;101103.38;5075206;28;20064;-61
2021/07/04 00:06:04;;;;;;;63.70;27.45;;;;;;;15.91;100.00;101099.88;5075312;28;20125;-61
2021/07/04 00:08:29;;;;;;;57.15;26.98;;;;;;;15.87;100.00;101106.16;5075398;28;20110;-61
2021/07/04 00:11:01;;;;;;;66.93;28.60;;;;;;;15.90;100.00;101102.59;5075037;28;20029;-60
2021/07/04 00:13:28;;;;;;;52.42;27.80;;;;;;;15.91;100.00;101101.69;5073396;28;20024;-61
2021/07/04 00:15:54;;;;;;;59.03;29.00;;;;;;;15.99;100.00;101103.34;5075139;28;20365;-61
2021/07/04 00:18:23;;;;;;;78.25;31.95;;;;;;;16.08;100.00;101104.13;5075250;28;20051;-60
2021/07/04 00:20:50;;;;;;;56.10;30.55;;;;;;;16.01;100.00;101098.84;5071271;28;20043;-61
2021/07/04 00:23:18;;;;;;;55.35;30.20;;;;;;;16.13;100.00;101097.78;5074979;28;20032;-61
2021/07/04 00:25:44;;;;;;;62.78;32.53;;;;;;;16.21;100.00;101097.72;5074405;28;20078;-65
2021/07/04 00:28:11;;;;;;;54.08;30.40;;;;;;;16.04;100.00;101097.94;5074849;28;20020;-63
2021/07/04 00:30:36;;;;;;;55.50;30.35;;;;;;;16.14;100.00;101096.91;5075111;28;20107;-65
2021/07/04 00:33:02;;;;;;;53.05;29.98;;;;;;;16.11;100.00;101088.09;5074908;28;20108;-64
2021/07/04 00:35:27;;;;;;;49.10;28.35;;;;;;;16.08;100.00;101080.13;5074908;28;20471;-68
2021/07/04 00:37:53;;;;;;;49.22;27.77;;;;;;;16.00;100.00;101075.78;5074702;28;20031;-68
2021/07/04 00:40:20;;;;;;;51.47;28.85;;;;;;;15.91;100.00;101054.56;5074736;28;20027;-62
2021/07/04 00:42:46;;;;;;;48.45;27.40;;;;;;;15.83;100.00;101059.16;5074301;28;20460;-66
2021/07/04 00:45:15;;;;;;;45.60;26.52;;;;;;;15.80;100.00;101056.50;5072747;28;20581;-63
2021/07/04 00:47:41;;;;;;;48.33;26.92;;;;;;;15.75;100.00;101058.34;5074585;28;20086;-63
2021/07/04 00:50:07;;;;;;;49.75;27.95;;;;;;;15.71;100.00;101067.28;5074507;28;20028;-64
2021/07/04 00:52:34;;;;;;;45.92;26.98;;;;;;;15.65;100.00;101068.22;5072411;28;20083;-64
2021/07/04 00:55:00;;;;;;;44.30;26.58;;;;;;;15.64;100.00;101061.13;5074436;28;20111;-63
2021/07/04 00:57:26;;;;;;;51.33;29.23;;;;;;;15.61;100.00;101054.06;5074435;28;20124;-65
2021/07/04 00:59:52;;;;;;;50.65;29.23;;;;;;;15.59;100.00;101060.31;5074630;28;20039;-61
2021/07/04 01:02:17;;;;;;;54.25;30.00;;;;;;;15.54;100.00;101056.81;5073371;28;20048;-63
2021/07/04 01:04:43;;;;;;;56.00;30.17;;;;;;;15.48;100.00;101060.47;5074071;28;20116;-64
2021/07/04 01:07:09;;;;;;;54.35;29.80;;;;;;;15.51;100.00;101055.09;5074099;28;20099;-63
2021/07/04 01:09:36;;;;;;;55.92;29.92;;;;;;;15.48;100.00;101056.00;5074238;28;20036;-63
2021/07/04 01:12:03;;;;;;;52.70;29.27;;;;;;;15.42;100.00;101056.09;5073806;28;20103;-62
2021/07/04 01:14:29;;;;;;;57.35;29.88;;;;;;;15.32;100.00;101049.13;5074149;28;20074;-63
2021/07/04 01:16:55;;;;;;;54.03;29.17;;;;;;;15.32;100.00;101044.66;5073977;28;20025;-60
2021/07/04 01:19:22;;;;;;;55.15;30.25;;;;;;;15.36;100.00;101047.28;5074814;28;20028;-61
2021/07/04 01:21:48;;;;;;;56.35;29.58;;;;;;;15.22;100.00;101042.13;5074089;28;20059;-62
2021/07/04 01:24:14;;;;;;;55.22;30.25;;;;;;;15.23;100.00;101047.44;5072924;28;20021;-61
2021/07/04 01:26:41;;;;;;;55.97;30.67;;;;;;;15.24;100.00;101046.53;5073896;28;20035;-61
2021/07/04 01:29:07;;;;;;;54.53;30.27;;;;;;;15.18;100.00;101035.97;5073833;28;20033;-62
2021/07/04 01:31:32;;;;;;;148.07;33.60;;;;;;;15.05;100.00;101042.31;5073376;28;20032;-62
2021/07/04 01:33:58;;;;;;;54.20;28.60;;;;;;;15.01;100.00;101043.25;5056271;28;20482;-62
2021/07/04 01:36:23;;;;;;;84.43;29.20;;;;;;;14.93;100.00;101044.22;5074114;28;20024;-61
2021/07/04 01:38:49;;;;;;;129.55;29.25;;;;;;;14.85;100.00;101043.41;5073161;28;20417;-61
2021/07/04 01:41:15;;;;;;;282.08;32.97;;;;;;;14.81;100.00;101047.03;5073136;28;20034;-64
2021/07/04 01:43:40;;;;;;;619.42;39.08;;;;;;;14.71;100.00;101050.63;5073878;28;20041;-62
2021/07/04 01:46:05;;;;;;;142.77;25.50;;;;;;;14.71;100.00;101048.88;5073606;28;20384;-61
2021/07/04 01:48:31;;;;;;;190.48;30.73;;;;;;;14.69;100.00;101047.13;5074083;28;20459;-62
2021/07/04 01:50:56;;;;;;;155.55;29.40;;;;;;;14.66;100.00;101053.34;5073227;28;20119;-61
2021/07/04 01:53:22;;;;;;;95.90;25.27;;;;;;;14.56;100.00;101048.97;5072988;28;20067;-62
2021/07/04 01:55:48;;;;;;;106.20;26.52;;;;;;;14.67;100.00;101047.13;5073464;28;20054;-61
2021/07/04 01:58:13;;;;;;;162.20;30.08;;;;;;;14.71;100.00;101034.66;5073263;28;20470;-62
2021/07/04 02:00:42;;;;;;;274.33;33.40;;;;;;;14.54;100.00;101037.47;5068972;28;20028;-63
2021/07/04 02:03:09;;;;;;;81.03;25.48;;;;;;;14.53;100.00;101031.25;5072365;28;20056;-61
2021/07/04 02:05:35;;;;;;;141.00;30.08;;;;;;;14.49;100.00;101034.88;5073153;28;20023;-60
2021/07/04 02:08:01;;;;;;;140.05;28.17;;;;;;;14.44;100.00;101047.31;5073055;28;20472;-62
2021/07/04 02:10:29;;;;;;;161.05;30.50;;;;;;;14.46;100.00;101042.88;5073038;28;20111;-61
2021/07/04 02:12:56;;;;;;;329.02;37.50;;;;;;;14.36;100.00;101031.41;5072238;28;20383;-61
2021/07/04 02:15:27;;;;;;;116.50;28.15;;;;;;;14.32;100.00;101045.63;5072838;28;20024;-61
2021/07/04 02:17:53;;;;;;;126.10;27.13;;;;;;;14.40;100.00;101037.56;5072384;28;20039;-61
2021/07/04 02:20:33;;;;;;;171.88;30.92;;;;;;;14.41;100.00;101047.34;5071613;28;20025;-61
2021/07/04 02:23:01;;;;;;;113.40;29.25;;;;;;;14.48;100.00;101043.72;5069998;28;20055;-62
2021/07/04 02:25:26;;;;;;;117.38;32.70;;;;;;;14.48;100.00;101041.06;5072427;28;20099;-64
2021/07/04 02:27:52;;;;;;;99.10;27.60;;;;;;;14.47;100.00;101045.53;5072709;28;20112;-62
2021/07/04 02:30:17;;;;;;;179.00;32.63;;;;;;;14.35;100.00;101045.59;5072627;28;20030;-62
2021/07/04 02:32:43;;;;;;;177.82;38.17;;;;;;;14.42;100.00;101038.47;5070745;28;20068;-61
2021/07/04 02:35:09;;;;;;;155.73;36.10;;;;;;;14.50;100.00;101041.91;5072621;28;20031;-61
2021/07/04 02:37:34;;;;;;;118.93;40.42;;;;;;;14.48;100.00;101033.97;5072619;28;20025;-61
2021/07/04 02:40:00;;;;;;;116.82;47.58;;;;;;;14.53;100.00;101041.91;5072985;28;20035;-62
2021/07/04 02:42:25;;;;;;;93.07;33.88;;;;;;;14.47;100.00;101041.94;5072100;28;20028;-63
2021/07/04 02:44:50;;;;;;;119.22;46.78;;;;;;;14.53;100.00;101046.34;5072146;28;20024;-61
2021/07/04 02:47:15;;;;;;;111.47;45.55;;;;;;;14.53;100.00;101039.22;5072756;28;20471;-61
2021/07/04 02:49:41;;;;;;;102.20;44.80;;;;;;;14.52;100.00;101036.59;5072306;28;20563;-61
2021/07/04 02:52:06;;;;;;;83.75;36.45;;;;;;;14.43;100.00;101034.88;5072056;28;20479;-60
2021/07/04 02:54:31;;;;;;;140.77;30.33;;;;;;;14.28;100.00;101033.25;5072506;28;20468;-61
2021/07/04 02:56:57;;;;;;;308.00;33.88;;;;;;;14.18;100.00;101035.09;5072058;28;20051;-62
2021/07/04 02:59:22;;;;;;;215.55;35.42;;;;;;;14.24;100.00;101035.06;5072102;28;20069;-65
2021/07/04 03:01:47;;;;;;;127.68;32.60;;;;;;;14.33;100.00;101038.53;5071204;28;20036;-65
2021/07/04 03:04:13;;;;;;;292.92;45.80;;;;;;;14.26;100.00;101046.56;5072241;28;20391;-61
2021/07/04 03:06:38;;;;;;;223.70;40.92;;;;;;;14.23;100.00;101054.56;5072198;28;20109;-63
2021/07/04 03:09:04;;;;;;;214.23;39.50;;;;;;;14.20;100.00;101059.91;5072462;28;20052;-62
2021/07/04 03:11:31;;;;;;;95.93;42.85;;;;;;;14.35;100.00;101058.03;5071595;28;20031;-65
2021/07/04 03:13:56;;;;;;;84.57;38.03;;;;;;;14.43;100.00;101049.09;5071759;28;20035;-61
2021/07/04 03:16:21;;;;;;;95.05;45.80;;;;;;;14.52;100.00;101037.50;5072093;28;20028;-63
2021/07/04 03:18:47;;;;;;;99.78;48.13;;;;;;;14.62;100.00;101049.84;5071890;28;20020;-66
2021/07/04 03:21:12;;;;;;;102.68;45.28;;;;;;;14.60;100.00;101048.94;5071486;28;20039;-65
2021/07/04 03:23:37;;;;;;;95.60;43.08;;;;;;;14.60;100.00;101035.63;5071879;28;20021;-63
2021/07/04 03:26:03;;;;;;;98.65;44.25;;;;;;;14.61;100.00;101041.84;5071599;28;20025;-61
2021/07/04 03:28:28;;;;;;;97.65;42.03;;;;;;;14.69;100.00;101037.34;5071811;28;20028;-62
2021/07/04 03:30:53;;;;;;;82.05;40.95;;;;;;;14.74;100.00;101040.88;5071487;28;20029;-61
2021/07/04 03:33:19;;;;;;;87.90;44.00;;;;;;;14.85;100.00;101037.22;5071324;28;20032;-63
2021/07/04 03:35:44;;;;;;;87.75;43.42;;;;;;;14.89;100.00;101034.50;5071898;28;20070;-61
2021/07/04 03:38:10;;;;;;;91.78;44.58;;;;;;;14.91;100.00;101038.03;5071471;28;20021;-61
2021/07/04 03:40:35;;;;;;;92.63;44.53;;;;;;;14.89;100.00;101034.50;5071995;28;20154;-63
2021/07/04 03:43:01;;;;;;;86.70;41.08;;;;;;;14.83;100.00;101029.25;5071516;28;20074;-64
2021/07/04 03:45:26;;;;;;;74.85;36.67;;;;;;;14.77;100.00;101026.66;5071618;28;20033;-63
2021/07/04 03:47:51;;;;;;;66.53;36.33;;;;;;;14.86;100.00;101025.69;5071406;28;20029;-62
2021/07/04 03:50:17;;;;;;;75.55;39.13;;;;;;;14.89;100.00;101025.63;5071578;28;20032;-61
2021/07/04 03:52:42;;;;;;;78.32;43.70;;;;;;;14.88;100.00;101014.13;5071347;28;20012;-63
2021/07/04 03:55:09;;;;;;;78.63;42.33;;;;;;;14.91;100.00;101015.84;5072163;28;20021;-63
2021/07/04 03:57:34;;;;;;;78.10;42.03;;;;;;;14.88;100.00;101007.91;5071549;28;20074;-63
2021/07/04 04:00:01;;;;;;;78.20;39.28;;;;;;;14.84;100.00;101020.38;5071437;28;20028;-63
2021/07/04 04:02:27;;;;;;;80.10;40.80;;;;;;;14.90;100.00;101014.09;5070255;28;20049;-63
2021/07/04 04:04:57;;;;;;;77.03;40.00;;;;;;;14.81;100.00;101020.41;5071370;28;20029;-63
2021/07/04 04:07:23;;;;;;;70.53;38.63;;;;;;;14.76;100.00;101024.88;5071759;28;20028;-62
2021/07/04 04:09:51;;;;;;;73.13;38.97;;;;;;;14.78;100.00;101025.72;5071863;28;20145;-62
2021/07/04 04:12:17;;;;;;;76.47;38.90;;;;;;;14.74;100.00;101026.69;5071526;28;20024;-67
2021/07/04 04:14:42;;;;;;;69.18;39.00;;;;;;;14.85;100.00;101027.44;5070980;28;20032;-65
2021/07/04 04:17:08;;;;;;;76.40;41.25;;;;;;;14.81;100.00;101028.38;5070082;28;20044;-66
2021/07/04 04:19:33;;;;;;;74.43;40.13;;;;;;;14.87;100.00;101028.31;5071330;28;20099;-65
2021/07/04 04:21:59;;;;;;;78.15;40.85;;;;;;;14.88;100.00;101026.53;5070989;28;20521;-65
2021/07/04 04:24:25;;;;;;;85.68;41.28;;;;;;;14.90;100.00;101035.41;5071937;28;20020;-65
2021/07/04 04:26:50;;;;;;;76.55;41.97;;;;;;;15.01;100.00;101028.16;5070817;28;20369;-66
2021/07/04 04:29:16;;;;;;;89.47;42.22;;;;;;;15.06;100.00;101033.44;5071126;28;20024;-61
2021/07/04 04:31:42;;;;;;;96.57;46.63;;;;;;;15.14;100.00;101029.81;5071497;28;20032;-64
2021/07/04 04:34:07;;;;;;;98.95;46.10;;;;;;;15.10;100.00;101030.72;5071196;28;20017;-63
2021/07/04 04:36:32;;;;;;;90.50;46.17;;;;;;;15.25;100.00;101031.44;5071251;28;20533;-62
2021/07/04 04:38:58;;;;;;;104.78;46.85;;;;;;;15.34;100.00;101031.34;5070756;28;20029;-63
2021/07/04 04:41:23;;;;;;;104.05;48.25;;;;;;;15.38;100.00;101034.81;5072937;28;20387;-65
2021/07/04 04:43:48;;;;;;;93.22;45.00;;;;;;;15.39;100.00;101028.59;5074797;28;20380;-64
2021/07/04 04:46:14;;;;;;;95.35;45.83;;;;;;;15.46;100.00;101024.97;5074936;28;20365;-62
2021/07/04 04:48:39;;;;;;;125.07;51.42;;;;;;;15.41;100.00;101024.16;5074487;28;20111;-62
2021/07/04 04:51:06;;;;;;;153.20;57.00;;;;;;;15.51;100.00;101028.47;5074274;28;20391;-62
2021/07/04 04:53:32;;;;;;;193.35;63.03;;;;;;;15.53;100.00;101031.97;5074869;28;20021;-64
2021/07/04 04:55:57;;;;;;;161.68;57.17;;;;;;;15.59;100.00;101031.88;5074495;28;20027;-68
2021/07/04 04:58:22;;;;;;;177.88;57.58;;;;;;;15.66;100.00;101028.22;5074584;28;20059;-65
2021/07/04 05:00:48;;;;;;;194.65;60.35;;;;;;;15.74;100.00;101029.91;5074094;28;20021;-64
2021/07/04 05:03:13;;;;;;;235.90;64.00;;;;;;;15.74;100.00;101021.91;5073317;28;20048;-62
2021/07/04 05:05:38;;;;;;;209.93;59.97;;;;;;;15.75;100.00;101021.03;5074762;28;20082;-65
2021/07/04 05:08:04;;;;;;;196.75;59.67;;;;;;;15.91;100.00;101022.59;5074328;28;20466;-65
2021/07/04 05:10:30;;;;;;;198.68;61.90;;;;;;;15.96;100.00;101022.50;5074462;28;20025;-64
2021/07/04 05:12:55;;;;;;;193.60;61.83;;;;;;;16.02;100.00;101017.97;5073699;28;20028;-63
2021/07/04 05:15:21;;;;;;;207.55;60.83;;;;;;;15.93;100.00;101020.78;5074152;28;20025;-66
2021/07/04 05:17:47;;;;;;;181.70;57.95;;;;;;;16.17;100.00;101023.97;5073953;28;20040;-64
2021/07/04 05:20:13;;;;;;;202.77;61.65;;;;;;;16.18;100.00;101033.75;5074096;28;20025;-63
2021/07/04 05:22:38;;;;;;;174.93;59.53;;;;;;;16.29;100.00;101026.44;5073705;28;20028;-64
2021/07/04 05:25:05;;;;;;;175.35;62.10;;;;;;;16.42;100.00;101021.78;5073702;28;20086;-62
2021/07/04 05:27:31;;;;;;;193.00;63.63;;;;;;;16.59;100.00;101021.50;5074223;28;20127;-61
2021/07/04 05:29:56;;;;;;;174.32;64.07;;;;;;;16.62;100.00;101023.22;5073956;28;20501;-61
2021/07/04 05:32:22;;;;;;;168.23;63.30;;;;;;;16.60;100.00;101022.34;5073523;28;20040;-61
2021/07/04 05:34:48;;;;;;;158.93;58.67;;;;;;;16.62;100.00;101017.91;5073781;28;20029;-61
2021/07/04 05:37:14;;;;;;;140.25;56.05;;;;;;;16.56;100.00;101016.22;5073659;28;20059;-61
2021/07/04 05:39:40;;;;;;;136.38;54.85;;;;;;;16.45;100.00;101015.50;5073786;28;20108;-62
2021/07/04 05:42:05;;;;;;;142.32;53.50;;;;;;;16.53;100.00;101008.25;5073142;28;20020;-62
2021/07/04 05:44:31;;;;;;;154.77;56.90;;;;;;;16.57;100.00;101007.28;5073585;28;20024;-61
2021/07/04 05:46:56;;;;;;;149.85;58.65;;;;;;;16.62;100.00;101002.75;5073886;28;20119;-61
2021/07/04 05:49:23;;;;;;;148.80;58.33;;;;;;;16.54;100.00;101007.34;5073565;28;20115;-61
2021/07/04 05:51:48;;;;;;;156.02;58.40;;;;;;;16.37;100.00;101010.31;5072805;28;20028;-63
2021/07/04 05:54:14;;;;;;;179.05;60.03;;;;;;;16.30;100.00;101006.00;5073861;28;20032;-61
2021/07/04 05:56:40;;;;;;;175.48;61.17;;;;;;;16.15;100.00;101010.66;5073136;28;20032;-60
2021/07/04 05:59:05;;;;;;;191.68;64.13;;;;;;;16.20;100.00;101015.94;5073030;28;20025;-59
2021/07/04 06:01:31;;;;;;;191.63;64.53;;;;;;;16.22;100.00;101019.44;5072376;28;20044;-61
2021/07/04 06:03:57;;;;;;;210.43;66.70;;;;;;;16.23;100.00;101007.88;5072971;28;20084;-59
2021/07/04 06:06:23;;;;;;;247.63;72.82;;;;;;;16.19;100.00;100996.38;5073354;28;20071;-61
2021/07/04 06:08:48;;;;;;;251.55;73.97;;;;;;;16.29;100.00;100997.09;5073126;28;20375;-60
2021/07/04 06:11:13;;;;;;;227.40;70.25;;;;;;;16.35;100.00;100996.09;5072575;28;20028;-62
2021/07/04 06:13:39;;;;;;;234.40;70.40;;;;;;;16.45;100.00;101000.38;5072891;28;20023;-61
2021/07/04 06:16:05;;;;;;;230.13;68.07;;;;;;;16.58;100.00;100997.50;5073233;28;20016;-61
2021/07/04 06:18:30;;;;;;;227.73;68.90;;;;;;;16.60;100.00;100996.56;5072930;28;20082;-59
2021/07/04 06:20:55;;;;;;;203.50;68.43;;;;;;;16.49;100.00;101003.88;5072952;28;20031;-60
2021/07/04 06:23:21;;;;;;;212.70;68.13;;;;;;;16.48;100.00;100991.44;5072022;28;20131;-61
2021/07/04 06:25:47;;;;;;;219.10;67.90;;;;;;;16.49;100.00;100994.09;5072407;28;20047;-59
2021/07/04 06:28:13;;;;;;;225.95;70.90;;;;;;;16.53;100.00;100993.13;5069988;28;20027;-59
2021/07/04 06:30:38;;;;;;;219.15;68.97;;;;;;;16.55;100.00;100987.75;5072778;28;20029;-60
2021/07/04 06:33:03;;;;;;;250.80;69.03;;;;;;;16.53;100.00;100982.44;5072081;28;20020;-60
2021/07/04 06:35:29;;;;;;;247.68;70.28;;;;;;;16.56;100.00;100987.72;5072437;28;20025;-60
2021/07/04 06:37:54;;;;;;;258.38;72.07;;;;;;;16.67;100.00;100982.22;5071826;28;20501;-61
2021/07/04 06:40:20;;;;;;;231.25;69.85;;;;;;;16.65;100.00;100996.50;5072202;28;20028;-60
2021/07/04 06:42:45;;;;;;;236.48;68.40;;;;;;;16.67;100.00;100981.31;5072128;28;20021;-61
2021/07/04 06:45:11;;;;;;;223.57;71.63;;;;;;;16.83;100.00;100987.25;5072411;28;20036;-60
2021/07/04 06:47:38;;;;;;;225.30;71.53;;;;;;;16.94;100.00;100979.94;5072204;28;20028;-60
2021/07/04 06:50:06;;;;;;;224.60;70.18;;;;;;;17.00;100.00;100979.81;5071735;28;20024;-61
2021/07/04 06:52:31;;;;;;;199.10;69.80;;;;;;;16.93;100.00;100978.16;5072017;28;20036;-61
2021/07/04 06:54:56;;;;;;;211.25;72.22;;;;;;;16.96;100.00;100988.78;5072190;28;20375;-60
2021/07/04 06:57:27;;;;;;;190.50;64.30;;;;;;;16.92;100.00;100981.78;5072385;28;20384;-60
2021/07/04 06:59:58;;;;;;;187.60;67.03;;;;;;;16.74;100.00;100978.50;5071973;28;20024;-60
2021/07/04 07:02:25;;;;;;;195.82;67.55;;;;;;;16.85;100.00;100975.63;5070843;28;20032;-60
2021/07/04 07:04:51;;;;;;;187.68;68.43;;;;;;;16.86;100.00;100976.50;5071935;28;20089;-60
2021/07/04 07:07:17;;;;;;;202.15;71.35;;;;;;;16.98;100.00;100972.72;5071653;28;20056;-60
2021/07/04 07:09:42;;;;;;;169.75;64.13;;;;;;;16.98;100.00;100976.31;5071865;28;20060;-60
2021/07/04 07:12:08;;;;;;;187.25;66.03;;;;;;;17.15;100.00;100981.28;5069857;28;20127;-61
2021/07/04 07:14:33;;;;;;;181.32;67.20;;;;;;;17.14;100.00;100976.88;5071746;28;20103;-60
2021/07/04 07:16:59;;;;;;;168.15;66.28;;;;;;;17.22;100.00;100979.38;5071578;28;20107;-60
2021/07/04 07:19:24;;;;;;;175.60;65.95;;;;;;;17.25;100.00;100979.31;5071870;28;20031;-60
2021/07/04 07:21:49;;;;;;;154.23;63.40;;;;;;;17.34;100.00;100984.44;5071328;28;20029;-60
2021/07/04 07:24:15;;;;;;;138.25;59.13;;;;;;;17.32;100.00;100983.59;5071867;28;20055;-60
2021/07/04 07:26:40;;;;;;;147.45;61.55;;;;;;;17.34;100.00;100983.56;5071732;28;20077;-60
2021/07/04 07:29:05;;;;;;;138.55;59.95;;;;;;;17.37;100.00;100988.84;5071862;28;20032;-59
2021/07/04 07:31:31;;;;;;;133.07;56.78;;;;;;;17.42;100.00;100986.97;5071468;28;20108;-60
2021/07/04 07:33:57;;;;;;;140.82;59.20;;;;;;;17.81;100.00;100988.75;5071759;28;20017;-60
2021/07/04 07:36:23;;;;;;;125.30;55.72;;;;;;;18.16;100.00;100984.38;5069498;28;20020;-60
2021/07/04 07:38:48;;;;;;;124.63;55.60;;;;;;;18.29;100.00;100980.50;5071263;28;20460;-60
2021/07/04 07:41:14;;;;;;;114.00;54.25;;;;;;;18.32;100.00;100980.44;5071062;28;20033;-61
2021/07/04 07:43:39;;;;;;;109.57;52.78;;;;;;;18.29;100.00;100989.41;5071248;28;20418;-60
2021/07/04 07:46:04;;;;;;;103.55;50.35;;;;;;;18.02;100.00;100990.97;5071936;28;20032;-60
2021/07/04 07:48:30;;;;;;;105.82;50.58;;;;;;;17.94;100.00;101000.97;5071272;28;20492;-61
2021/07/04 07:50:55;;;;;;;105.03;50.70;;;;;;;17.92;100.00;100997.44;5071280;28;20028;-60
2021/07/04 07:53:20;;;;;;;115.40;54.05;;;;;;;17.91;100.00;100996.56;5071280;28;20025;-61
2021/07/04 07:55:46;;;;;;;115.13;52.88;;;;;;;17.89;100.00;100992.13;5071573;28;20361;-61
2021/07/04 07:58:11;;;;;;;124.35;56.47;;;;;;;17.97;100.00;100989.31;5071462;28;20024;-62
2021/07/04 08:00:36;;;;;;;124.05;56.40;;;;;;;18.19;100.00;100989.66;5071362;28;20025;-61
2021/07/04 08:03:02;;;;;;;122.03;54.40;;;;;;;18.59;100.00;100985.97;5070544;28;20052;-63
2021/07/04 08:05:28;;;;;;;114.35;55.88;;;;;;;18.69;100.00;100974.06;5071569;28;20031;-63
2021/07/04 08:07:53;;;;;;;120.65;56.10;;;;;;;18.92;100.00;100975.28;5071741;28;20089;-63
2021/07/04 08:10:19;;;;;;;112.60;54.83;;;;;;;18.81;100.00;100968.41;5071957;28;20055;-62
2021/07/04 08:12:44;;;;;;;110.65;53.97;;;;;;;18.64;100.00;100954.59;5071980;28;20348;-64
2021/07/04 08:15:10;;;;;;;102.57;50.13;;;;;;;18.69;100.00;100952.66;5071636;28;20020;-63
2021/07/04 08:17:36;;;;;;;109.80;52.20;;;;;;;18.85;100.00;100954.91;5069982;28;20032;-65
2021/07/04 08:20:03;;;;;;;87.85;46.42;;;;;;;19.03;100.00;100959.75;5074973;28;20028;-66
2021/07/04 08:22:28;;;;;;;74.65;42.05;;;;;;;19.03;100.00;100954.41;5075031;28;20032;-65
2021/07/04 08:24:53;;;;;;;75.30;41.70;;;;;;;19.04;100.00;100948.13;5074934;28;20043;-65
2021/07/04 08:27:19;;;;;;;65.95;37.90;;;;;;;18.81;99.77;100941.63;5075172;28;20064;-66
2021/07/04 08:29:44;;;;;;;72.30;39.60;;;;;;;18.80;100.00;100939.00;5074689;28;20056;-65
2021/07/04 08:32:11;;;;;;;63.88;36.65;;;;;;;19.07;100.00;100937.31;5073288;28;20033;-65
2021/07/04 08:34:36;;;;;;;53.15;29.65;;;;;;;19.50;95.30;100936.03;5075061;28;20024;-65
2021/07/04 08:37:02;;;;;;;54.13;31.25;;;;;;;19.57;88.89;100941.19;5075122;28;20028;-65
2021/07/04 08:39:27;;;;;;;55.63;32.10;;;;;;;19.55;86.81;100940.38;5074108;28;20048;-65
2021/07/04 08:41:53;;;;;;;52.78;31.35;;;;;;;19.59;86.58;100945.59;5074574;28;20306;-65
2021/07/04 08:44:18;;;;;;;57.58;34.30;;;;;;;19.65;90.00;100942.69;5074578;28;20056;-65
2021/07/04 08:46:45;;;;;;;58.63;34.95;;;;;;;19.71;88.22;100944.31;5074179;28;20033;-65
2021/07/04 08:49:14;;;;;;;56.50;32.13;;;;;;;20.00;88.91;100942.50;5071594;28;20035;-67
2021/07/04 08:51:40;;;;;;;51.30;30.10;;;;;;;20.41;83.23;100940.22;5074418;28;20024;-65
2021/07/04 08:54:06;;;;;;;52.40;31.08;;;;;;;20.64;81.94;100922.41;5074489;28;20104;-65
2021/07/04 08:56:32;;;;;;;53.33;30.45;;;;;;;20.77;79.64;100923.75;5074443;28;20108;-68
2021/07/04 08:58:57;;;;;;;55.40;31.75;;;;;;;21.02;81.20;100921.00;5073366;28;20040;-65
2021/07/04 09:01:25;;;;;;;50.70;30.23;;;;;;;21.36;77.97;100925.09;5073935;28;20027;-65
2021/07/04 09:04:06;;;;;;;51.72;29.88;;;;;;;21.63;78.13;100932.16;5074158;28;20041;-61
2021/07/04 09:06:40;;;;;;;51.70;30.10;;;;;;;21.75;79.00;100934.31;5074206;28;20086;-61
2021/07/04 09:09:16;;;;;;;53.67;30.50;;;;;;;21.77;75.05;100933.34;5071002;28;20058;-60
2021/07/04 09:12:00;;;;;;;54.85;31.77;;;;;;;21.79;76.06;100937.78;5071009;28;20043;-61
2021/07/04 09:14:36;;;;;;;57.25;33.33;;;;;;;21.77;77.58;100930.66;5073910;28;20032;-61
2021/07/04 09:17:04;;;;;;;50.72;30.55;;;;;;;21.86;72.12;100925.84;5072625;28;20063;-61
2021/07/04 09:19:29;;;;;;;55.03;31.30;;;;;;;21.89;74.40;100915.81;5074141;28;20379;-62
2021/07/04 09:21:57;;;;;;;56.15;31.85;;;;;;;22.01;77.33;100929.69;5073395;28;20036;-62
2021/07/04 09:24:31;;;;;;;52.40;30.17;;;;;;;22.12;74.41;100919.34;5073301;28;20033;-63
2021/07/04 09:26:57;;;;;;;50.10;30.23;;;;;;;22.06;72.49;100920.50;5073568;28;20046;-62
2021/07/04 09:29:46;;;;;;;51.10;30.52;;;;;;;22.06;79.20;100919.59;5070066;28;20055;-68
2021/07/04 09:32:17;;;;;;;51.92;32.13;;;;;;;22.31;74.26;100900.59;5071822;28;20059;-65
2021/07/04 09:35:10;;;;;;;52.38;30.42;;;;;;;22.78;75.82;100902.13;5073631;28;20035;-66
2021/07/04 09:37:37;;;;;;;45.25;27.30;;;;;;;23.19;66.24;100906.56;5071766;28;20033;-67
2021/07/04 09:40:17;;;;;;;47.28;26.83;;;;;;;23.18;67.97;100897.56;5073381;28;20093;-65
2021/07/04 09:42:54;;;;;;;45.92;26.85;;;;;;;23.18;70.16;100902.97;5072125;28;20025;-66
2021/07/04 09:45:21;;;;;;;45.50;25.58;;;;;;;23.41;67.01;100890.22;5073792;28;20031;-64
2021/07/04 09:47:57;;;;;;;44.20;25.60;;;;;;;23.48;67.37;100897.94;5073632;28;20024;-65
2021/07/04 09:50:24;;;;;;;43.00;25.27;;;;;;;23.43;62.75;100891.91;5073513;28;20067;-66
2021/07/04 09:52:57;;;;;;;45.10;25.30;;;;;;;23.60;67.90;100890.19;5073556;28;20078;-66
2021/07/04 09:55:22;;;;;;;43.60;25.80;;;;;;;23.77;65.40;100886.66;5071715;28;20111;-65
2021/07/04 09:58:02;;;;;;;44.17;25.55;;;;;;;23.88;64.29;100895.09;5070604;28;20511;-64
2021/07/04 10:00:33;;;;;;;43.30;26.05;;;;;;;24.19;62.46;100885.44;5071181;28;20055;-64
2021/07/04 10:03:21;;;;;;;44.70;25.75;;;;;;;24.74;62.87;100886.19;5073121;28;20044;-64
2021/07/04 10:05:50;;;;;;;45.35;25.98;;;;;;;24.66;63.59;100882.06;5068979;28;20024;-63
2021/07/04 10:08:23;;;;;;;44.42;25.90;;;;;;;24.59;63.58;100882.44;5073069;28;20099;-65
2021/07/04 10:10:51;;;;;;;44.80;26.23;;;;;;;24.39;59.82;100878.97;5070102;28;20041;-64
2021/07/04 10:13:16;;;;;;;44.50;25.95;;;;;;;24.16;62.42;100872.97;5072711;28;20361;-64
2021/07/04 10:15:42;;;;;;;45.67;26.98;;;;;;;23.72;62.28;100872.50;5072963;28;20035;-64
2021/07/04 10:18:10;;;;;;;47.03;27.38;;;;;;;23.41;64.23;100874.91;5071368;28;20027;-68
2021/07/04 10:20:37;;;;;;;48.08;28.33;;;;;;;23.15;66.32;100868.06;5072101;28;20021;-71
2021/07/04 10:23:06;;;;;;;51.85;28.77;;;;;;;22.97;68.84;100870.66;5072223;28;20036;-64
2021/07/04 10:25:32;;;;;;;50.42;29.35;;;;;;;23.01;69.38;100868.72;5072560;28;20028;-70
2021/07/04 10:27:59;;;;;;;50.78;29.30;;;;;;;23.22;67.86;100860.56;5073258;28;20024;-65
2021/07/04 10:30:25;;;;;;;51.95;31.38;;;;;;;23.47;65.69;100854.84;5070186;28;20371;-62
2021/07/04 10:33:16;;;;;;;52.92;31.75;;;;;;;23.63;66.76;100853.13;5072749;28;20056;-63
2021/07/04 10:36:02;;;;;;;52.97;31.42;;;;;;;24.00;66.83;100843.19;5072000;28;20121;-62
2021/07/04 10:38:44;;;;;;;50.25;30.55;;;;;;;24.39;64.97;100840.28;5069077;28;20085;-62
2021/07/04 10:41:16;;;;;;;55.47;32.43;;;;;;;24.76;62.48;100839.19;5071355;28;20056;-70
2021/07/04 10:44:03;;;;;;;54.47;33.42;;;;;;;24.96;62.16;100829.97;5071284;28;20295;-63
2021/07/04 10:46:43;;;;;;;52.58;32.55;;;;;;;26.07;62.32;100818.13;5071876;28;20028;-62
2021/07/04 10:49:19;;;;;;;49.95;30.30;;;;;;;27.58;52.41;100810.34;5070465;28;20036;-66
2021/07/04 10:52:15;;;;;;;50.72;30.40;;;;;;;28.70;52.77;100811.66;5072574;28;20403;-66
2021/07/04 10:54:44;;;;;;;51.25;30.92;;;;;;;28.95;47.30;100810.75;5010164;28;20133;-61
2021/07/04 10:57:15;;;;;;;49.80;30.02;;;;;;;28.84;46.28;100811.53;5010326;28;20030;-67
2021/07/04 10:59:58;;;;;;;53.17;31.02;;;;;;;28.20;53.04;100803.41;5009530;28;20042;-73